createdAt,value
2023-01-13T00:01:14.795Z,97138.59
2023-01-13T00:03:41.323Z,97091.81
2023-01-13T00:06:08.341Z,97105.78
2023-01-13T00:08:35.683Z,96982.16
2023-01-13T00:11:02.284Z,96979.66
2023-01-13T00:13:28.777Z,97159.72
2023-01-13T00:15:59.187Z,97187.41
2023-01-13T00:18:25.799Z,97070.63
2023-01-13T00:21:02.792Z,97089.56
2023-01-13T00:23:29.604Z,97097.28
2023-01-13T00:26:00.334Z,97106.16
2023-01-13T00:28:26.860Z,97177.19
2023-01-13T00:30:53.459Z,97069.13
2023-01-13T00:33:20.216Z,97005.16
2023-01-13T00:35:55.909Z,97177.50
2023-01-13T00:38:22.416Z,96935.06
2023-01-13T00:41:01.895Z,97196.41
2023-01-13T00:43:28.772Z,97060.63
2023-01-13T00:45:55.329Z,97142.72
2023-01-13T00:48:22.757Z,97160.16
2023-01-13T00:50:59.650Z,97117.09
2023-01-13T00:53:26.529Z,97162.81
2023-01-13T00:56:03.134Z,97081.53
2023-01-13T00:58:31.216Z,97143.94
2023-01-13T01:01:06.326Z,97102.66
2023-01-13T01:03:33.325Z,97054.97
2023-01-13T01:06:16.887Z,97125.13
2023-01-13T01:08:43.437Z,96958.38
2023-01-13T01:11:13.783Z,97089.03
2023-01-13T01:13:40.293Z,97094.88
2023-01-13T01:16:14.656Z,97115.81
2023-01-13T01:18:43.305Z,97019.03
2023-01-13T01:21:09.853Z,97010.47
2023-01-13T01:23:36.828Z,97011.25
2023-01-13T01:26:05.194Z,97134.72
2023-01-13T01:28:31.967Z,97031.63
2023-01-13T01:30:59.699Z,96898.84
2023-01-13T01:33:26.747Z,97055.31
2023-01-13T01:35:54.053Z,97033.63
2023-01-13T01:38:22.288Z,97117.72
2023-01-13T01:40:49.222Z,97140.94
2023-01-13T01:43:35.353Z,97032.03
2023-01-13T01:46:01.924Z,97050.97
2023-01-13T01:48:29.245Z,96852.16
2023-01-13T01:50:55.796Z,97025.19
2023-01-13T01:53:23.179Z,97064.94
2023-01-13T01:55:49.716Z,97135.91
2023-01-13T01:58:21.873Z,97016.56
2023-01-13T02:00:48.640Z,97109.31
2023-01-13T02:03:15.591Z,97009.75
2023-01-13T02:05:42.424Z,97096.44
2023-01-13T02:08:10.308Z,97007.34
2023-01-13T02:10:36.797Z,97003.91
2023-01-13T02:13:05.517Z,97121.59
2023-01-13T02:15:47.090Z,97116.50
2023-01-13T02:18:24.677Z,97105.47
2023-01-13T02:20:59.489Z,97058.59
2023-01-13T02:24:22.674Z,97099.53
2023-01-13T02:26:54.851Z,97102.09
2023-01-13T02:30:15.759Z,97098.69
2023-01-13T02:33:14.297Z,97092.75
2023-01-13T02:35:43.732Z,97090.22
2023-01-13T02:38:10.902Z,97024.44
2023-01-13T02:40:45.775Z,96981.31
2023-01-13T02:43:51.669Z,96978.81
2023-01-13T02:46:22.360Z,97020.31
2023-01-13T02:48:48.933Z,97074.00
2023-01-13T02:51:17.632Z,97056.72
2023-01-13T02:53:53.670Z,96985.50
2023-01-13T02:56:20.170Z,96951.84
2023-01-13T02:58:46.702Z,97083.97
2023-01-13T03:01:13.345Z,96957.00
2023-01-13T03:03:39.997Z,97003.69
2023-01-13T03:06:06.521Z,97094.44
2023-01-13T03:08:54.874Z,97093.56
2023-01-13T03:11:21.425Z,97069.53
2023-01-13T03:14:01.692Z,97082.50
2023-01-13T03:16:49.364Z,97078.25
2023-01-13T03:19:35.626Z,97068.94
2023-01-13T03:22:47.024Z,97074.03
2023-01-13T03:25:18.637Z,96855.38
2023-01-13T03:27:47.685Z,97058.69
2023-01-13T03:30:32.558Z,96943.47
2023-01-13T03:33:05.182Z,96993.78
2023-01-13T03:35:44.219Z,97025.91
2023-01-13T03:38:13.522Z,96827.91
2023-01-13T03:40:44.289Z,96999.94
2023-01-13T03:43:35.205Z,96890.22
2023-01-13T03:46:06.637Z,97018.97
2023-01-13T03:48:33.365Z,96998.13
2023-01-13T03:51:06.358Z,97011.31
2023-01-13T03:53:54.772Z,97047.66
2023-01-13T03:56:43.222Z,96978.50
2023-01-13T03:59:15.773Z,96939.72
2023-01-13T04:01:45.853Z,96915.56
2023-01-13T04:04:19.673Z,97034.06
2023-01-13T04:06:58.487Z,97021.91
2023-01-13T04:09:27.839Z,97034.91
2023-01-13T04:12:15.298Z,97036.63
2023-01-13T04:14:41.849Z,97011.53
2023-01-13T04:17:08.374Z,96914.81
2023-01-13T04:19:34.947Z,96636.94
2023-01-13T04:22:01.530Z,96932.13
2023-01-13T04:24:28.115Z,96788.03
2023-01-13T04:26:56.511Z,96946.81
2023-01-13T04:29:23.192Z,96933.84
2023-01-13T04:31:49.712Z,97008.19
2023-01-13T04:34:16.315Z,96994.44
2023-01-13T04:36:42.907Z,97008.06
2023-01-13T04:39:09.436Z,97032.16
2023-01-13T04:41:54.799Z,96980.34
2023-01-13T04:44:21.336Z,96986.53
2023-01-13T04:46:47.905Z,96974.41
2023-01-13T04:49:14.566Z,96893.19
2023-01-13T04:51:41.110Z,96944.16
2023-01-13T04:54:07.697Z,97004.69
2023-01-13T04:56:34.260Z,97000.44
2023-01-13T04:59:00.865Z,96964.00
2023-01-13T05:01:27.536Z,96909.22
2023-01-13T05:03:54.177Z,97027.88
2023-01-13T05:06:20.826Z,96987.38
2023-01-13T05:08:47.369Z,97006.31
2023-01-13T05:11:34.158Z,97030.69
2023-01-13T05:14:19.288Z,96946.78
2023-01-13T05:17:03.563Z,96967.59
2023-01-13T05:19:34.503Z,96876.78
2023-01-13T05:22:19.740Z,96995.97
2023-01-13T05:25:05.401Z,97003.00
2023-01-13T05:27:32.254Z,96956.25
2023-01-13T05:29:58.837Z,97012.38
2023-01-13T05:32:25.552Z,97030.25
2023-01-13T05:34:52.117Z,96853.47
2023-01-13T05:37:18.652Z,96982.97
2023-01-13T05:40:04.053Z,96905.28
2023-01-13T05:42:49.325Z,96786.00
2023-01-13T05:45:15.930Z,96899.19
2023-01-13T05:47:42.539Z,96997.72
2023-01-13T05:50:09.654Z,96968.31
2023-01-13T05:52:36.299Z,97005.56
2023-01-13T05:55:03.035Z,96919.81
2023-01-13T05:57:29.784Z,97062.81
2023-01-13T05:59:56.376Z,96921.56
2023-01-13T06:02:22.918Z,96915.59
2023-01-13T06:04:49.525Z,97012.38
2023-01-13T06:07:16.037Z,97011.53
2023-01-13T06:09:42.579Z,96949.25
2023-01-13T06:12:11.647Z,96988.94
2023-01-13T06:14:41.008Z,96894.84
2023-01-13T06:17:11.931Z,96994.31
2023-01-13T06:19:38.537Z,96912.09
2023-01-13T06:22:35.697Z,96842.84
2023-01-13T06:25:02.311Z,96935.97
2023-01-13T06:27:28.849Z,96968.06
2023-01-13T06:29:57.096Z,97000.31
2023-01-13T06:32:26.116Z,96912.91
2023-01-13T06:34:55.616Z,97003.00
2023-01-13T06:37:25.342Z,96934.75
2023-01-13T06:39:53.031Z,97012.41
2023-01-13T06:42:38.291Z,96972.56
2023-01-13T06:45:05.107Z,96965.75
2023-01-13T06:47:31.613Z,96985.47
2023-01-13T06:49:59.903Z,96986.44
2023-01-13T06:52:30.360Z,96998.50
2023-01-13T06:54:57.587Z,96925.88
2023-01-13T06:57:24.521Z,97014.97
2023-01-13T06:59:51.062Z,96960.47
2023-01-13T07:02:17.703Z,96977.84
2023-01-13T07:04:45.203Z,96978.78
2023-01-13T07:07:12.437Z,96961.56
2023-01-13T07:09:39.603Z,96964.91
2023-01-13T07:12:06.355Z,96970.22
2023-01-13T07:14:51.370Z,97007.34
2023-01-13T07:17:25.103Z,96920.03
2023-01-13T07:19:53.106Z,96902.78
2023-01-13T07:22:19.803Z,96939.88
2023-01-13T07:24:46.350Z,96958.09
2023-01-13T07:27:12.955Z,96993.56
2023-01-13T07:29:39.749Z,96956.53
2023-01-13T07:32:07.869Z,97017.69
2023-01-13T07:34:34.491Z,97011.66
2023-01-13T07:37:01.142Z,96925.34
2023-01-13T07:39:27.681Z,96988.34
2023-01-13T07:42:12.824Z,97021.44
2023-01-13T07:44:39.403Z,96945.25
2023-01-13T07:47:06.103Z,96966.81
2023-01-13T07:49:33.157Z,96974.66
2023-01-13T07:51:59.733Z,96954.72
2023-01-13T07:54:39.709Z,96992.63
2023-01-13T07:57:07.017Z,96910.47
2023-01-13T07:59:33.701Z,96940.75
2023-01-13T08:02:00.514Z,96933.78
2023-01-13T08:04:27.270Z,96964.03
2023-01-13T08:06:53.804Z,96991.63
2023-01-13T08:09:20.375Z,96956.84
2023-01-13T08:12:06.885Z,96990.53
2023-01-13T08:14:33.669Z,96993.09
2023-01-13T08:17:00.209Z,96948.94
2023-01-13T08:19:26.793Z,96995.59
2023-01-13T08:21:53.317Z,97048.06
2023-01-13T08:24:19.945Z,96973.75
2023-01-13T08:26:46.561Z,97006.75
2023-01-13T08:29:14.984Z,97014.59
2023-01-13T08:31:41.775Z,96967.91
2023-01-13T08:34:08.269Z,97023.25
2023-01-13T08:36:34.908Z,97061.03
2023-01-13T08:39:01.530Z,96980.06
2023-01-13T08:41:46.716Z,96923.84
2023-01-13T08:44:13.185Z,97011.97
2023-01-13T08:46:39.786Z,96912.66
2023-01-13T08:49:06.340Z,96936.03
2023-01-13T08:51:32.870Z,96953.06
2023-01-13T08:53:59.420Z,97029.91
2023-01-13T08:56:25.938Z,97021.28
2023-01-13T08:58:52.510Z,96950.38
2023-01-13T09:01:22.244Z,97047.19
2023-01-13T09:03:48.844Z,97043.53
2023-01-13T09:06:15.335Z,97053.06
2023-01-13T09:08:41.929Z,97061.94
2023-01-13T09:11:30.433Z,96980.06
2023-01-13T09:13:56.926Z,96998.75
2023-01-13T09:16:23.443Z,97041.09
2023-01-13T09:18:50.000Z,96992.72
2023-01-13T09:21:16.603Z,97056.53
2023-01-13T09:23:43.154Z,97082.34
2023-01-13T09:26:09.883Z,96993.19
2023-01-13T09:28:36.382Z,97002.81
2023-01-13T09:31:03.013Z,97006.06
2023-01-13T09:33:48.121Z,97088.22
2023-01-13T09:36:14.611Z,97019.03
2023-01-13T09:38:41.143Z,97057.28
2023-01-13T09:41:32.838Z,97047.78
2023-01-13T09:44:00.004Z,97080.75
2023-01-13T09:46:47.748Z,97038.66
2023-01-13T09:49:24.012Z,97004.19
2023-01-13T09:52:03.829Z,97075.94
2023-01-13T09:54:44.840Z,97055.94
2023-01-13T09:57:12.812Z,97030.38
2023-01-13T09:59:39.398Z,97057.03
2023-01-13T10:02:39.785Z,97063.13
2023-01-13T10:05:18.678Z,97073.34
2023-01-13T10:07:49.731Z,96968.06
2023-01-13T10:10:20.705Z,96968.94
2023-01-13T10:13:06.411Z,97034.66
2023-01-13T10:15:32.977Z,96951.75
2023-01-13T10:18:16.315Z,97030.31
2023-01-13T10:20:52.712Z,96927.47
2023-01-13T10:23:51.400Z,97019.88
2023-01-13T10:26:36.404Z,97053.81
2023-01-13T10:29:02.929Z,97002.91
2023-01-13T10:31:29.509Z,96951.91
2023-01-13T10:34:00.153Z,96979.44
2023-01-13T10:36:26.687Z,97037.19
2023-01-13T10:38:53.186Z,97044.34
2023-01-13T10:41:25.974Z,96945.19
2023-01-13T10:43:52.420Z,97029.16
2023-01-13T10:46:19.894Z,96940.94
2023-01-13T10:48:53.209Z,97034.28
2023-01-13T10:51:30.965Z,96964.25
2023-01-13T10:54:12.881Z,97021.50
2023-01-13T10:56:40.900Z,96993.78
2023-01-13T10:59:19.551Z,97022.34
2023-01-13T11:01:57.128Z,96979.88
2023-01-13T11:04:34.041Z,97039.34
2023-01-13T11:07:00.731Z,96999.56
2023-01-13T11:09:27.541Z,96963.13
2023-01-13T11:11:56.911Z,96980.59
2023-01-13T11:14:42.737Z,97042.75
2023-01-13T11:17:12.211Z,97047.84
2023-01-13T11:19:42.462Z,96934.63
2023-01-13T11:22:16.970Z,97052.09
2023-01-13T11:24:51.345Z,96990.63
2023-01-13T11:27:34.619Z,97050.22
2023-01-13T11:30:03.253Z,97004.38
2023-01-13T11:32:32.949Z,96943.88
2023-01-13T11:35:05.011Z,97045.06
2023-01-13T11:37:32.483Z,96985.41
2023-01-13T11:40:36.753Z,97053.81
2023-01-13T11:43:28.019Z,97066.56
2023-01-13T11:45:56.598Z,97030.25
2023-01-13T11:48:27.103Z,96945.50
2023-01-13T11:50:59.104Z,97053.56
2023-01-13T11:53:44.431Z,97071.63
2023-01-13T11:56:48.541Z,97072.50
2023-01-13T11:59:21.142Z,97073.28
2023-01-13T12:01:57.652Z,97074.13
2023-01-13T12:04:33.325Z,97079.28
2023-01-13T12:06:59.868Z,97086.91
2023-01-13T12:09:34.015Z,97083.53
2023-01-13T12:12:23.440Z,97064.31
2023-01-13T12:15:24.048Z,97077.59
2023-01-13T12:18:07.073Z,97044.84
2023-01-13T12:20:43.751Z,97070.75
2023-01-13T12:23:36.213Z,97008.38
2023-01-13T12:26:08.256Z,97009.19
2023-01-13T12:28:56.310Z,96995.38
2023-01-13T12:31:23.157Z,97070.38
2023-01-13T12:34:01.476Z,97085.25
2023-01-13T12:36:34.169Z,97092.88
2023-01-13T12:39:40.307Z,97098.00
2023-01-13T12:43:18.158Z,97032.19
2023-01-13T12:45:44.757Z,97042.19
2023-01-13T12:48:56.887Z,97063.25
2023-01-13T12:51:26.421Z,97108.19
2023-01-13T12:53:53.138Z,97096.06
2023-01-13T12:56:34.834Z,97065.63
2023-01-13T12:59:20.769Z,97112.41
2023-01-13T13:02:09.281Z,97086.38
2023-01-13T13:04:51.980Z,97030.06
2023-01-13T13:07:30.649Z,97104.75
2023-01-13T13:10:11.927Z,96983.75
2023-01-13T13:13:00.164Z,97107.34
2023-01-13T13:15:36.507Z,97019.13
2023-01-13T13:18:08.669Z,97066.91
2023-01-13T13:20:57.619Z,97042.59
2023-01-13T13:23:33.267Z,97109.91
2023-01-13T13:26:50.488Z,97125.22
2023-01-13T13:29:43.498Z,97118.44
2023-01-13T13:32:47.676Z,97134.53
2023-01-13T13:35:20.040Z,97135.38
2023-01-13T13:38:44.443Z,97042.66
2023-01-13T13:41:32.229Z,97134.22
2023-01-13T13:44:20.326Z,97128.09
2023-01-13T13:46:47.446Z,97040.50
2023-01-13T13:49:16.819Z,97174.50
2023-01-13T13:52:04.938Z,97114.59
2023-01-13T13:54:31.510Z,97112.16
2023-01-13T13:56:58.980Z,97133.47
2023-01-13T13:59:27.676Z,97114.47
2023-01-13T14:02:01.301Z,97190.59
2023-01-13T14:04:32.802Z,97148.84
2023-01-13T14:07:06.844Z,97114.13
2023-01-13T14:09:45.395Z,97152.91
2023-01-13T14:12:24.719Z,97217.84
2023-01-13T14:14:51.533Z,97178.75
2023-01-13T14:17:25.022Z,97198.28
2023-01-13T14:20:15.184Z,97139.72
2023-01-13T14:22:47.294Z,97104.78
2023-01-13T14:25:37.076Z,97098.63
2023-01-13T14:28:11.516Z,97137.34
2023-01-13T14:30:38.129Z,97162.34
2023-01-13T14:33:05.143Z,97152.59
2023-01-13T14:35:31.774Z,97112.53
2023-01-13T14:38:01.698Z,97187.88
2023-01-13T14:40:38.170Z,97244.19
2023-01-13T14:43:10.797Z,97217.25
2023-01-13T14:45:37.348Z,97169.72
2023-01-13T14:48:06.970Z,97098.09
2023-01-13T14:50:34.791Z,97145.97
2023-01-13T14:53:01.393Z,97233.19
2023-01-13T14:55:31.642Z,97230.63
2023-01-13T14:58:28.446Z,97125.84
2023-01-13T15:01:43.594Z,97235.75
2023-01-13T15:04:38.185Z,97253.59
2023-01-13T15:07:04.854Z,97121.84
2023-01-13T15:09:38.912Z,97163.19
2023-01-13T15:12:23.320Z,97232.47
2023-01-13T15:14:52.629Z,97146.72
2023-01-13T15:17:19.204Z,97196.19
2023-01-13T15:19:45.745Z,97037.75
2023-01-13T15:22:12.364Z,97086.41
2023-01-13T15:24:38.922Z,97193.09
2023-01-13T15:27:16.768Z,97143.00
2023-01-13T15:29:43.329Z,97214.94
2023-01-13T15:32:18.861Z,97184.44
2023-01-13T15:34:46.878Z,97175.72
2023-01-13T15:37:17.061Z,97223.25
2023-01-13T15:39:43.950Z,97197.13
2023-01-13T15:42:32.315Z,97187.63
2023-01-13T15:45:17.591Z,97226.66
2023-01-13T15:47:44.159Z,97280.94
2023-01-13T15:50:18.420Z,97229.06
2023-01-13T15:52:45.030Z,97158.81
2023-01-13T15:55:11.592Z,97155.91
2023-01-13T15:57:38.914Z,97246.03
2023-01-13T16:00:13.825Z,97326.66
2023-01-13T16:02:40.430Z,97014.00
2023-01-13T16:05:08.369Z,97205.88
2023-01-13T16:07:34.977Z,97280.25
2023-01-13T16:10:03.450Z,97241.22
2023-01-13T16:12:29.994Z,97233.38
2023-01-13T16:14:56.618Z,97284.59
2023-01-13T16:17:24.887Z,97260.72
2023-01-13T16:19:51.564Z,97284.59
2023-01-13T16:22:18.219Z,97155.84
2023-01-13T16:24:44.760Z,97303.72
2023-01-13T16:27:15.876Z,97291.78
2023-01-13T16:29:43.008Z,97095.94
2023-01-13T16:32:09.544Z,97343.38
2023-01-13T16:34:36.295Z,97274.09
2023-01-13T16:37:02.993Z,97299.97
2023-01-13T16:39:30.908Z,97238.47
2023-01-13T16:41:57.470Z,97285.38
2023-01-13T16:44:23.986Z,97377.72
2023-01-13T16:46:50.896Z,97274.44
2023-01-13T16:49:18.350Z,97373.75
2023-01-13T16:51:44.879Z,97312.34
2023-01-13T16:54:12.225Z,97288.44
2023-01-13T16:56:38.746Z,97307.09
2023-01-13T16:59:07.591Z,97322.47
2023-01-13T17:01:35.618Z,97332.69
2023-01-13T17:04:02.818Z,97318.66
2023-01-13T17:06:32.800Z,97409.66
2023-01-13T17:09:23.567Z,97405.13
2023-01-13T17:11:50.234Z,97463.38
2023-01-13T17:14:19.570Z,97257.78
2023-01-13T17:16:46.561Z,97359.50
2023-01-13T17:19:13.303Z,97380.91
2023-01-13T17:21:39.808Z,97409.16
2023-01-13T17:24:07.863Z,97399.84
2023-01-13T17:26:40.119Z,97392.53
2023-01-13T17:29:11.729Z,97384.03
2023-01-13T17:31:38.413Z,97262.38
2023-01-13T17:34:05.031Z,97416.03
2023-01-13T17:36:31.762Z,97358.47
2023-01-13T17:38:58.511Z,97410.88
2023-01-13T17:41:25.046Z,97294.97
2023-01-13T17:43:52.413Z,97376.63
2023-01-13T17:46:19.820Z,97466.06
2023-01-13T17:48:46.976Z,97400.78
2023-01-13T17:51:14.290Z,97402.72
2023-01-13T17:53:40.847Z,97504.09
2023-01-13T17:56:09.575Z,97405.16
2023-01-13T17:58:37.413Z,97372.81
2023-01-13T18:01:15.415Z,97214.19
2023-01-13T18:03:42.055Z,97476.19
2023-01-13T18:06:11.280Z,97511.91
2023-01-13T18:08:37.854Z,97410.31
2023-01-13T18:11:04.558Z,97411.13
2023-01-13T18:13:33.595Z,97503.41
2023-01-13T18:16:09.162Z,97491.56
2023-01-13T18:18:35.666Z,97434.78
2023-01-13T18:21:20.899Z,97413.50
2023-01-13T18:24:06.153Z,97382.16
2023-01-13T18:26:51.408Z,97326.34
2023-01-13T18:29:18.600Z,97351.31
2023-01-13T18:31:45.227Z,97446.03
2023-01-13T18:34:11.703Z,97410.78
2023-01-13T18:36:38.327Z,97420.38
2023-01-13T18:39:04.838Z,97432.59
2023-01-13T18:41:49.977Z,97452.22
2023-01-13T18:44:16.535Z,97424.22
2023-01-13T18:46:43.190Z,97385.91
2023-01-13T18:49:09.687Z,97554.28
2023-01-13T18:51:36.202Z,97496.41
2023-01-13T18:54:02.706Z,97452.44
2023-01-13T18:56:31.132Z,97475.09
2023-01-13T18:58:57.742Z,97451.56
2023-01-13T19:01:25.882Z,97534.06
2023-01-13T19:04:03.651Z,97482.25
2023-01-13T19:06:34.295Z,97391.00
2023-01-13T19:09:08.182Z,97559.44
2023-01-13T19:11:36.044Z,97500.25
2023-01-13T19:14:03.137Z,97533.94
2023-01-13T19:16:29.749Z,97394.16
2023-01-13T19:18:56.389Z,97469.50
2023-01-13T19:21:24.179Z,97468.72
2023-01-13T19:23:57.717Z,97572.25
2023-01-13T19:26:24.243Z,97443.63
2023-01-13T19:28:50.892Z,97578.19
2023-01-13T19:31:20.287Z,97497.97
2023-01-13T19:33:46.837Z,97528.28
2023-01-13T19:36:13.406Z,97444.78
2023-01-13T19:38:39.941Z,97499.47
2023-01-13T19:41:11.701Z,97509.09
2023-01-13T19:43:56.814Z,97426.38
2023-01-13T19:46:25.892Z,97483.63
2023-01-13T19:48:52.403Z,97530.00
2023-01-13T19:51:19.008Z,97547.84
2023-01-13T19:53:46.820Z,97525.59
2023-01-13T19:56:14.286Z,97410.31
2023-01-13T19:58:42.065Z,97454.47
2023-01-13T20:01:10.246Z,97503.16
2023-01-13T20:03:37.756Z,97494.56
2023-01-13T20:06:06.558Z,97550.94
2023-01-13T20:08:33.212Z,97546.44
2023-01-13T20:11:19.739Z,97551.00
2023-01-13T20:13:46.248Z,97516.84
2023-01-13T20:16:12.768Z,97568.72
2023-01-13T20:18:39.332Z,97562.72
2023-01-13T20:21:06.673Z,97569.59
2023-01-13T20:23:33.276Z,97545.34
2023-01-13T20:25:59.904Z,97539.13
2023-01-13T20:28:26.507Z,97557.19
2023-01-13T20:30:53.491Z,97661.44
2023-01-13T20:33:20.140Z,97534.56
2023-01-13T20:35:46.706Z,97668.28
2023-01-13T20:38:13.281Z,97528.69
2023-01-13T20:40:39.785Z,97560.44
2023-01-13T20:43:06.513Z,97599.41
2023-01-13T20:45:33.137Z,97661.03
2023-01-13T20:47:59.686Z,97569.09
2023-01-13T20:50:26.175Z,97550.59
2023-01-13T20:52:52.792Z,97571.56
2023-01-13T20:55:19.320Z,97628.69
2023-01-13T20:57:48.802Z,97549.53
2023-01-13T21:00:15.753Z,97588.66
2023-01-13T21:02:43.995Z,97532.16
2023-01-13T21:05:11.000Z,97681.97
2023-01-13T22:04:27.135Z,97214.97
2023-01-13T22:07:07.459Z,97481.47
2023-01-13T22:09:49.574Z,97235.72
2023-01-13T22:12:35.081Z,97393.47
2023-01-13T22:15:16.269Z,97750.94
2023-01-13T22:17:53.248Z,97373.25
2023-01-13T22:20:44.864Z,97266.56
2023-01-13T22:23:15.933Z,97315.00
2023-01-13T22:25:53.168Z,97273.53
2023-01-13T22:28:52.853Z,97779.72
2023-01-13T22:34:34.539Z,97263.13
2023-01-13T22:40:12.791Z,97320.81
2023-01-13T22:42:51.097Z,97307.59
2023-01-13T22:45:36.095Z,97401.19
2023-01-13T22:48:10.556Z,97290.44
2023-01-13T22:51:05.984Z,97312.72
2023-01-13T22:53:48.260Z,97392.69
2023-01-13T22:56:28.417Z,97295.66
2023-01-13T23:01:59.859Z,97406.19
2023-01-13T23:04:44.832Z,97463.19
2023-01-13T23:07:20.963Z,97813.47
2023-01-13T23:15:32.068Z,97321.94
2023-01-13T23:21:12.610Z,97343.47
2023-01-13T23:23:46.626Z,97270.03
2023-01-13T23:26:24.015Z,97531.50
2023-01-13T23:29:12.930Z,97306.38
2023-01-13T23:31:44.889Z,97285.00
2023-01-13T23:34:29.292Z,97309.84
2023-01-13T23:37:29.601Z,97717.13
2023-01-13T23:40:11.079Z,97288.88
2023-01-13T23:42:52.779Z,97290.44
2023-01-13T23:45:26.207Z,97570.66
2023-01-13T23:48:08.260Z,97444.38
2023-01-13T23:50:48.484Z,97261.19
2023-01-13T23:53:23.630Z,97453.72
2023-01-13T23:55:56.229Z,97302.63
2023-01-13T23:58:38.442Z,97336.13
